sensor_id;sensor_type;location;lat;lon;timestamp;P1;durP1;ratioP1;P2;durP2;ratioP2
79348;SDS011;68817;48.110;11.660;2023-06-24T00:00:24;4.40;;;3.20;;
79348;SDS011;68817;48.110;11.660;2023-06-24T00:02:50;3.25;;;2.60;;
79348;SDS011;68817;48.110;11.660;2023-06-24T00:05:18;3.55;;;2.58;;
79348;SDS011;68817;48.110;11.660;2023-06-24T00:07:44;3.00;;;2.45;;
79348;SDS011;68817;48.110;11.660;2023-06-24T00:10:10;4.10;;;2.75;;
79348;SDS011;68817;48.110;11.660;2023-06-24T00:12:37;3.70;;;2.70;;
79348;SDS011;68817;48.110;11.660;2023-06-24T00:15:05;5.05;;;2.65;;
79348;SDS011;68817;48.110;11.660;2023-06-24T00:17:31;3.55;;;2.83;;
79348;SDS011;68817;48.110;11.660;2023-06-24T00:19:56;3.63;;;2.80;;
79348;SDS011;68817;48.110;11.660;2023-06-24T00:22:22;4.43;;;2.90;;
79348;SDS011;68817;48.110;11.660;2023-06-24T00:24:47;3.40;;;2.80;;
79348;SDS011;68817;48.110;11.660;2023-06-24T00:27:12;4.25;;;2.47;;
79348;SDS011;68817;48.110;11.660;2023-06-24T00:29:38;4.03;;;2.65;;
79348;SDS011;68817;48.110;11.660;2023-06-24T00:32:03;4.22;;;3.30;;
79348;SDS011;68817;48.110;11.660;2023-06-24T00:34:30;4.97;;;3.03;;
79348;SDS011;68817;48.110;11.660;2023-06-24T00:36:55;3.85;;;2.95;;
79348;SDS011;68817;48.110;11.660;2023-06-24T00:39:21;5.15;;;3.05;;
79348;SDS011;68817;48.110;11.660;2023-06-24T00:41:46;4.13;;;3.30;;
79348;SDS011;68817;48.110;11.660;2023-06-24T00:44:11;3.75;;;2.88;;
79348;SDS011;68817;48.110;11.660;2023-06-24T00:46:37;3.17;;;2.60;;
79348;SDS011;68817;48.110;11.660;2023-06-24T00:49:05;4.72;;;3.20;;
79348;SDS011;68817;48.110;11.660;2023-06-24T00:51:30;3.85;;;2.70;;
79348;SDS011;68817;48.110;11.660;2023-06-24T00:53:57;4.15;;;3.03;;
79348;SDS011;68817;48.110;11.660;2023-06-24T00:56:30;4.07;;;2.80;;
79348;SDS011;68817;48.110;11.660;2023-06-24T00:58:57;4.43;;;3.38;;
79348;SDS011;68817;48.110;11.660;2023-06-24T01:01:23;3.35;;;2.58;;
79348;SDS011;68817;48.110;11.660;2023-06-24T01:03:50;3.42;;;2.72;;
79348;SDS011;68817;48.110;11.660;2023-06-24T01:06:15;5.03;;;3.15;;
79348;SDS011;68817;48.110;11.660;2023-06-24T01:08:41;4.20;;;2.40;;
79348;SDS011;68817;48.110;11.660;2023-06-24T01:11:06;4.68;;;2.75;;
79348;SDS011;68817;48.110;11.660;2023-06-24T01:13:32;3.25;;;2.88;;
79348;SDS011;68817;48.110;11.660;2023-06-24T01:15:59;3.78;;;2.90;;
79348;SDS011;68817;48.110;11.660;2023-06-24T01:21:05;3.53;;;2.90;;
79348;SDS011;68817;48.110;11.660;2023-06-24T01:26:19;3.78;;;3.00;;
79348;SDS011;68817;48.110;11.660;2023-06-24T01:29:00;3.33;;;2.75;;
79348;SDS011;68817;48.110;11.660;2023-06-24T01:34:48;3.72;;;2.60;;
79348;SDS011;68817;48.110;11.660;2023-06-24T01:37:25;4.55;;;2.75;;
79348;SDS011;68817;48.110;11.660;2023-06-24T01:39:57;3.40;;;2.85;;
79348;SDS011;68817;48.110;11.660;2023-06-24T01:42:36;3.10;;;2.63;;
79348;SDS011;68817;48.110;11.660;2023-06-24T01:45:03;3.83;;;2.90;;
79348;SDS011;68817;48.110;11.660;2023-06-24T01:47:31;4.32;;;2.97;;
79348;SDS011;68817;48.110;11.660;2023-06-24T01:49:57;3.42;;;2.55;;
79348;SDS011;68817;48.110;11.660;2023-06-24T01:52:24;3.67;;;2.80;;
79348;SDS011;68817;48.110;11.660;2023-06-24T01:54:53;3.70;;;2.90;;
79348;SDS011;68817;48.110;11.660;2023-06-24T01:57:18;2.47;;;2.25;;
79348;SDS011;68817;48.110;11.660;2023-06-24T01:59:45;4.72;;;2.90;;
79348;SDS011;68817;48.110;11.660;2023-06-24T02:02:11;4.55;;;2.72;;
79348;SDS011;68817;48.110;11.660;2023-06-24T02:04:37;3.45;;;2.70;;
79348;SDS011;68817;48.110;11.660;2023-06-24T02:07:03;3.80;;;2.50;;
79348;SDS011;68817;48.110;11.660;2023-06-24T02:09:29;3.13;;;2.42;;
79348;SDS011;68817;48.110;11.660;2023-06-24T02:11:58;3.88;;;2.47;;
79348;SDS011;68817;48.110;11.660;2023-06-24T02:14:26;3.28;;;2.65;;
79348;SDS011;68817;48.110;11.660;2023-06-24T02:16:52;4.22;;;2.90;;
79348;SDS011;68817;48.110;11.660;2023-06-24T02:19:26;5.75;;;3.13;;
79348;SDS011;68817;48.110;11.660;2023-06-24T02:21:56;3.92;;;2.90;;
79348;SDS011;68817;48.110;11.660;2023-06-24T02:24:23;4.60;;;2.75;;
79348;SDS011;68817;48.110;11.660;2023-06-24T02:26:48;2.97;;;2.70;;
79348;SDS011;68817;48.110;11.660;2023-06-24T02:29:15;4.13;;;2.65;;
79348;SDS011;68817;48.110;11.660;2023-06-24T02:31:40;4.25;;;3.00;;
79348;SDS011;68817;48.110;11.660;2023-06-24T02:34:06;2.72;;;2.42;;
79348;SDS011;68817;48.110;11.660;2023-06-24T02:36:31;4.32;;;2.50;;
79348;SDS011;68817;48.110;11.660;2023-06-24T02:38:57;3.70;;;2.60;;
79348;SDS011;68817;48.110;11.660;2023-06-24T02:41:22;4.18;;;3.28;;
79348;SDS011;68817;48.110;11.660;2023-06-24T02:43:48;3.92;;;2.90;;
79348;SDS011;68817;48.110;11.660;2023-06-24T02:46:14;3.90;;;2.65;;
79348;SDS011;68817;48.110;11.660;2023-06-24T02:48:40;3.47;;;2.70;;
79348;SDS011;68817;48.110;11.660;2023-06-24T02:51:07;3.60;;;2.85;;
79348;SDS011;68817;48.110;11.660;2023-06-24T02:53:33;4.05;;;2.80;;
79348;SDS011;68817;48.110;11.660;2023-06-24T02:55:59;4.38;;;3.00;;
79348;SDS011;68817;48.110;11.660;2023-06-24T02:58:25;4.75;;;2.85;;
79348;SDS011;68817;48.110;11.660;2023-06-24T03:01:02;3.38;;;2.65;;
79348;SDS011;68817;48.110;11.660;2023-06-24T03:03:36;2.60;;;2.38;;
79348;SDS011;68817;48.110;11.660;2023-06-24T03:06:07;5.47;;;3.03;;
79348;SDS011;68817;48.110;11.660;2023-06-24T03:08:37;4.13;;;2.97;;
79348;SDS011;68817;48.110;11.660;2023-06-24T03:11:03;3.67;;;2.90;;
79348;SDS011;68817;48.110;11.660;2023-06-24T03:13:30;4.53;;;3.13;;
79348;SDS011;68817;48.110;11.660;2023-06-24T03:16:01;4.43;;;2.90;;
79348;SDS011;68817;48.110;11.660;2023-06-24T03:18:30;4.10;;;2.90;;
79348;SDS011;68817;48.110;11.660;2023-06-24T03:20:56;3.33;;;2.50;;
79348;SDS011;68817;48.110;11.660;2023-06-24T03:23:25;3.47;;;3.00;;
79348;SDS011;68817;48.110;11.660;2023-06-24T03:25:51;3.85;;;2.70;;
79348;SDS011;68817;48.110;11.660;2023-06-24T03:28:16;4.03;;;2.80;;
79348;SDS011;68817;48.110;11.660;2023-06-24T03:30:46;4.18;;;3.17;;
79348;SDS011;68817;48.110;11.660;2023-06-24T03:33:16;5.72;;;3.22;;
79348;SDS011;68817;48.110;11.660;2023-06-24T03:35:43;4.13;;;2.97;;
79348;SDS011;68817;48.110;11.660;2023-06-24T03:38:11;3.97;;;2.90;;
79348;SDS011;68817;48.110;11.660;2023-06-24T03:40:37;4.85;;;3.10;;
79348;SDS011;68817;48.110;11.660;2023-06-24T03:43:03;3.20;;;2.42;;
79348;SDS011;68817;48.110;11.660;2023-06-24T03:45:28;3.75;;;3.20;;
79348;SDS011;68817;48.110;11.660;2023-06-24T03:47:53;4.90;;;2.90;;
79348;SDS011;68817;48.110;11.660;2023-06-24T03:50:19;4.50;;;2.95;;
79348;SDS011;68817;48.110;11.660;2023-06-24T03:52:44;3.75;;;2.95;;
79348;SDS011;68817;48.110;11.660;2023-06-24T03:55:11;3.70;;;2.35;;
79348;SDS011;68817;48.110;11.660;2023-06-24T03:57:36;4.07;;;2.75;;
79348;SDS011;68817;48.110;11.660;2023-06-24T04:00:02;4.65;;;3.30;;
79348;SDS011;68817;48.110;11.660;2023-06-24T04:02:38;4.30;;;3.17;;
79348;SDS011;68817;48.110;11.660;2023-06-24T04:05:03;4.03;;;2.85;;
79348;SDS011;68817;48.110;11.660;2023-06-24T04:07:31;4.45;;;3.10;;
79348;SDS011;68817;48.110;11.660;2023-06-24T04:09:57;3.65;;;3.20;;
79348;SDS011;68817;48.110;11.660;2023-06-24T04:12:22;4.13;;;3.10;;
79348;SDS011;68817;48.110;11.660;2023-06-24T04:14:48;4.70;;;3.28;;
79348;SDS011;68817;48.110;11.660;2023-06-24T04:17:13;3.70;;;2.88;;
79348;SDS011;68817;48.110;11.660;2023-06-24T04:19:39;4.57;;;3.55;;
79348;SDS011;68817;48.110;11.660;2023-06-24T04:22:04;4.47;;;3.00;;
79348;SDS011;68817;48.110;11.660;2023-06-24T04:24:30;4.30;;;3.35;;
79348;SDS011;68817;48.110;11.660;2023-06-24T04:26:55;4.32;;;3.15;;
79348;SDS011;68817;48.110;11.660;2023-06-24T04:29:21;4.68;;;3.25;;
79348;SDS011;68817;48.110;11.660;2023-06-24T04:31:46;3.97;;;2.90;;
79348;SDS011;68817;48.110;11.660;2023-06-24T04:34:11;3.95;;;2.97;;
79348;SDS011;68817;48.110;11.660;2023-06-24T04:36:37;3.42;;;3.03;;
79348;SDS011;68817;48.110;11.660;2023-06-24T04:39:03;4.43;;;2.95;;
79348;SDS011;68817;48.110;11.660;2023-06-24T04:41:29;3.92;;;3.22;;
79348;SDS011;68817;48.110;11.660;2023-06-24T04:43:54;4.47;;;2.85;;
79348;SDS011;68817;48.110;11.660;2023-06-24T04:46:20;4.32;;;2.95;;
79348;SDS011;68817;48.110;11.660;2023-06-24T04:48:46;3.67;;;2.67;;
79348;SDS011;68817;48.110;11.660;2023-06-24T04:51:12;3.55;;;2.65;;
79348;SDS011;68817;48.110;11.660;2023-06-24T04:53:37;5.00;;;3.80;;
79348;SDS011;68817;48.110;11.660;2023-06-24T04:56:03;4.93;;;2.97;;
79348;SDS011;68817;48.110;11.660;2023-06-24T04:58:28;3.95;;;3.10;;
79348;SDS011;68817;48.110;11.660;2023-06-24T05:00:54;4.00;;;2.80;;
79348;SDS011;68817;48.110;11.660;2023-06-24T05:03:19;4.60;;;2.97;;
79348;SDS011;68817;48.110;11.660;2023-06-24T05:05:44;4.28;;;3.08;;
79348;SDS011;68817;48.110;11.660;2023-06-24T05:08:10;3.83;;;2.83;;
79348;SDS011;68817;48.110;11.660;2023-06-24T05:10:35;3.95;;;2.95;;
79348;SDS011;68817;48.110;11.660;2023-06-24T05:13:00;4.63;;;3.00;;
79348;SDS011;68817;48.110;11.660;2023-06-24T05:15:26;4.05;;;3.42;;
79348;SDS011;68817;48.110;11.660;2023-06-24T05:17:51;4.22;;;3.00;;
79348;SDS011;68817;48.110;11.660;2023-06-24T05:20:17;3.70;;;2.83;;
79348;SDS011;68817;48.110;11.660;2023-06-24T05:22:43;4.90;;;3.15;;
79348;SDS011;68817;48.110;11.660;2023-06-24T05:25:08;3.75;;;3.00;;
79348;SDS011;68817;48.110;11.660;2023-06-24T05:27:35;3.88;;;2.95;;
79348;SDS011;68817;48.110;11.660;2023-06-24T05:30:00;4.20;;;3.10;;
79348;SDS011;68817;48.110;11.660;2023-06-24T05:32:25;4.28;;;3.03;;
79348;SDS011;68817;48.110;11.660;2023-06-24T05:34:51;4.00;;;3.10;;
79348;SDS011;68817;48.110;11.660;2023-06-24T05:37:16;4.93;;;3.50;;
79348;SDS011;68817;48.110;11.660;2023-06-24T05:39:42;4.10;;;3.33;;
79348;SDS011;68817;48.110;11.660;2023-06-24T05:42:07;4.65;;;3.10;;
79348;SDS011;68817;48.110;11.660;2023-06-24T05:44:32;4.68;;;3.15;;
79348;SDS011;68817;48.110;11.660;2023-06-24T05:46:58;4.05;;;3.15;;
79348;SDS011;68817;48.110;11.660;2023-06-24T05:49:24;3.45;;;2.80;;
79348;SDS011;68817;48.110;11.660;2023-06-24T05:51:49;3.70;;;2.60;;
79348;SDS011;68817;48.110;11.660;2023-06-24T05:54:15;4.65;;;3.00;;
79348;SDS011;68817;48.110;11.660;2023-06-24T05:56:40;3.13;;;2.50;;
79348;SDS011;68817;48.110;11.660;2023-06-24T05:59:06;3.95;;;3.00;;
79348;SDS011;68817;48.110;11.660;2023-06-24T06:01:31;4.28;;;3.17;;
79348;SDS011;68817;48.110;11.660;2023-06-24T06:03:57;4.57;;;3.30;;
79348;SDS011;68817;48.110;11.660;2023-06-24T06:06:22;6.07;;;2.92;;
79348;SDS011;68817;48.110;11.660;2023-06-24T06:08:47;3.63;;;2.45;;
79348;SDS011;68817;48.110;11.660;2023-06-24T06:11:13;3.35;;;2.90;;
79348;SDS011;68817;48.110;11.660;2023-06-24T06:13:38;4.18;;;2.88;;
79348;SDS011;68817;48.110;11.660;2023-06-24T06:16:04;3.75;;;2.70;;
79348;SDS011;68817;48.110;11.660;2023-06-24T06:18:29;3.80;;;3.03;;
79348;SDS011;68817;48.110;11.660;2023-06-24T06:20:54;4.22;;;3.25;;
79348;SDS011;68817;48.110;11.660;2023-06-24T06:23:20;3.20;;;2.67;;
79348;SDS011;68817;48.110;11.660;2023-06-24T06:25:46;3.78;;;3.15;;
79348;SDS011;68817;48.110;11.660;2023-06-24T06:28:11;4.40;;;3.03;;
79348;SDS011;68817;48.110;11.660;2023-06-24T06:30:36;4.32;;;3.25;;
79348;SDS011;68817;48.110;11.660;2023-06-24T06:33:02;5.50;;;2.85;;
79348;SDS011;68817;48.110;11.660;2023-06-24T06:35:27;3.85;;;3.00;;
79348;SDS011;68817;48.110;11.660;2023-06-24T06:37:53;3.10;;;2.63;;
79348;SDS011;68817;48.110;11.660;2023-06-24T06:40:19;3.63;;;3.13;;
79348;SDS011;68817;48.110;11.660;2023-06-24T06:42:45;4.03;;;2.80;;
79348;SDS011;68817;48.110;11.660;2023-06-24T06:45:10;4.70;;;2.42;;
79348;SDS011;68817;48.110;11.660;2023-06-24T06:47:36;3.85;;;3.03;;
79348;SDS011;68817;48.110;11.660;2023-06-24T06:50:01;4.15;;;2.70;;
79348;SDS011;68817;48.110;11.660;2023-06-24T06:52:27;4.30;;;2.92;;
79348;SDS011;68817;48.110;11.660;2023-06-24T06:54:55;4.53;;;3.00;;
79348;SDS011;68817;48.110;11.660;2023-06-24T06:57:21;3.72;;;2.42;;
79348;SDS011;68817;48.110;11.660;2023-06-24T06:59:47;4.68;;;2.80;;
79348;SDS011;68817;48.110;11.660;2023-06-24T07:02:12;3.78;;;2.80;;
79348;SDS011;68817;48.110;11.660;2023-06-24T07:04:37;5.00;;;3.00;;
79348;SDS011;68817;48.110;11.660;2023-06-24T07:07:03;4.65;;;3.00;;
79348;SDS011;68817;48.110;11.660;2023-06-24T07:09:28;4.03;;;2.60;;
79348;SDS011;68817;48.110;11.660;2023-06-24T07:11:54;4.45;;;2.53;;
79348;SDS011;68817;48.110;11.660;2023-06-24T07:14:19;4.47;;;2.60;;
79348;SDS011;68817;48.110;11.660;2023-06-24T07:16:45;4.95;;;2.38;;
79348;SDS011;68817;48.110;11.660;2023-06-24T07:19:10;3.65;;;2.47;;
79348;SDS011;68817;48.110;11.660;2023-06-24T07:21:35;4.45;;;2.85;;
79348;SDS011;68817;48.110;11.660;2023-06-24T07:24:01;2.55;;;2.13;;
79348;SDS011;68817;48.110;11.660;2023-06-24T07:26:26;3.80;;;2.40;;
79348;SDS011;68817;48.110;11.660;2023-06-24T07:28:55;2.88;;;2.55;;
79348;SDS011;68817;48.110;11.660;2023-06-24T07:31:21;3.05;;;2.35;;
79348;SDS011;68817;48.110;11.660;2023-06-24T07:33:47;4.35;;;2.55;;
79348;SDS011;68817;48.110;11.660;2023-06-24T07:36:12;3.40;;;2.20;;
79348;SDS011;68817;48.110;11.660;2023-06-24T07:38:38;2.47;;;2.28;;
79348;SDS011;68817;48.110;11.660;2023-06-24T07:41:04;2.83;;;2.50;;
79348;SDS011;68817;48.110;11.660;2023-06-24T07:43:29;3.10;;;2.60;;
79348;SDS011;68817;48.110;11.660;2023-06-24T07:45:55;4.10;;;2.72;;
79348;SDS011;68817;48.110;11.660;2023-06-24T07:48:20;3.75;;;2.33;;
79348;SDS011;68817;48.110;11.660;2023-06-24T07:50:46;3.70;;;2.35;;
79348;SDS011;68817;48.110;11.660;2023-06-24T07:53:11;3.78;;;2.50;;
79348;SDS011;68817;48.110;11.660;2023-06-24T07:55:36;4.65;;;2.55;;
79348;SDS011;68817;48.110;11.660;2023-06-24T07:58:02;2.83;;;2.40;;
79348;SDS011;68817;48.110;11.660;2023-06-24T08:00:28;3.13;;;2.63;;
79348;SDS011;68817;48.110;11.660;2023-06-24T08:02:53;3.42;;;2.15;;
79348;SDS011;68817;48.110;11.660;2023-06-24T08:05:20;2.88;;;2.42;;
79348;SDS011;68817;48.110;11.660;2023-06-24T08:07:46;2.53;;;2.33;;
79348;SDS011;68817;48.110;11.660;2023-06-24T08:10:11;4.18;;;2.80;;
79348;SDS011;68817;48.110;11.660;2023-06-24T08:12:37;2.83;;;2.50;;
79348;SDS011;68817;48.110;11.660;2023-06-24T08:15:02;2.78;;;2.30;;
79348;SDS011;68817;48.110;11.660;2023-06-24T08:17:28;2.70;;;2.28;;
79348;SDS011;68817;48.110;11.660;2023-06-24T08:19:53;2.78;;;2.30;;
79348;SDS011;68817;48.110;11.660;2023-06-24T08:22:19;3.20;;;2.83;;
79348;SDS011;68817;48.110;11.660;2023-06-24T08:24:44;3.25;;;2.60;;
79348;SDS011;68817;48.110;11.660;2023-06-24T08:27:10;3.25;;;2.70;;
79348;SDS011;68817;48.110;11.660;2023-06-24T08:29:35;3.03;;;2.67;;
79348;SDS011;68817;48.110;11.660;2023-06-24T08:32:01;2.90;;;2.60;;
79348;SDS011;68817;48.110;11.660;2023-06-24T08:34:26;3.42;;;2.75;;
79348;SDS011;68817;48.110;11.660;2023-06-24T08:36:51;3.80;;;2.75;;
79348;SDS011;68817;48.110;11.660;2023-06-24T08:39:17;4.28;;;3.03;;
79348;SDS011;68817;48.110;11.660;2023-06-24T08:41:42;3.92;;;2.92;;
79348;SDS011;68817;48.110;11.660;2023-06-24T08:44:08;3.47;;;3.17;;
79348;SDS011;68817;48.110;11.660;2023-06-24T08:46:33;3.35;;;3.05;;
79348;SDS011;68817;48.110;11.660;2023-06-24T08:49:10;4.03;;;3.00;;
79348;SDS011;68817;48.110;11.660;2023-06-24T08:51:41;4.95;;;3.20;;
79348;SDS011;68817;48.110;11.660;2023-06-24T08:54:09;3.83;;;3.00;;
79348;SDS011;68817;48.110;11.660;2023-06-24T08:56:36;5.00;;;3.30;;
79348;SDS011;68817;48.110;11.660;2023-06-24T08:59:04;4.22;;;3.53;;
79348;SDS011;68817;48.110;11.660;2023-06-24T09:01:30;4.20;;;3.60;;
79348;SDS011;68817;48.110;11.660;2023-06-24T09:03:56;4.13;;;3.20;;
79348;SDS011;68817;48.110;11.660;2023-06-24T09:06:21;4.13;;;2.83;;
79348;SDS011;68817;48.110;11.660;2023-06-24T09:08:54;3.15;;;2.40;;
79348;SDS011;68817;48.110;11.660;2023-06-24T09:11:26;3.25;;;2.90;;
79348;SDS011;68817;48.110;11.660;2023-06-24T09:13:56;4.00;;;3.28;;
79348;SDS011;68817;48.110;11.660;2023-06-24T09:16:24;3.97;;;3.58;;
79348;SDS011;68817;48.110;11.660;2023-06-24T09:18:50;4.18;;;3.65;;
79348;SDS011;68817;48.110;11.660;2023-06-24T09:21:26;4.50;;;3.60;;
79348;SDS011;68817;48.110;11.660;2023-06-24T09:23:54;3.95;;;3.55;;
79348;SDS011;68817;48.110;11.660;2023-06-24T09:26:22;5.95;;;3.45;;
79348;SDS011;68817;48.110;11.660;2023-06-24T09:28:48;4.03;;;3.58;;
79348;SDS011;68817;48.110;11.660;2023-06-24T09:31:14;3.58;;;3.20;;
79348;SDS011;68817;48.110;11.660;2023-06-24T09:33:39;4.85;;;3.65;;
79348;SDS011;68817;48.110;11.660;2023-06-24T09:36:05;4.25;;;3.60;;
79348;SDS011;68817;48.110;11.660;2023-06-24T09:38:34;3.90;;;2.90;;
79348;SDS011;68817;48.110;11.660;2023-06-24T09:41:04;4.63;;;3.60;;
79348;SDS011;68817;48.110;11.660;2023-06-24T09:43:37;3.65;;;3.25;;
79348;SDS011;68817;48.110;11.660;2023-06-24T09:46:04;5.45;;;3.28;;
79348;SDS011;68817;48.110;11.660;2023-06-24T09:48:30;4.68;;;3.63;;
79348;SDS011;68817;48.110;11.660;2023-06-24T09:50:56;3.33;;;2.97;;
79348;SDS011;68817;48.110;11.660;2023-06-24T09:53:24;3.85;;;3.30;;
79348;SDS011;68817;48.110;11.660;2023-06-24T09:55:50;4.93;;;3.55;;
79348;SDS011;68817;48.110;11.660;2023-06-24T09:58:16;4.53;;;3.38;;
79348;SDS011;68817;48.110;11.660;2023-06-24T10:00:42;4.82;;;3.60;;
79348;SDS011;68817;48.110;11.660;2023-06-24T10:03:07;4.30;;;3.63;;
79348;SDS011;68817;48.110;11.660;2023-06-24T10:05:33;4.03;;;3.63;;
79348;SDS011;68817;48.110;11.660;2023-06-24T10:07:58;4.25;;;3.80;;
79348;SDS011;68817;48.110;11.660;2023-06-24T10:10:24;5.10;;;3.90;;
79348;SDS011;68817;48.110;11.660;2023-06-24T10:12:49;4.28;;;3.88;;
79348;SDS011;68817;48.110;11.660;2023-06-24T10:15:15;4.10;;;3.60;;
79348;SDS011;68817;48.110;11.660;2023-06-24T10:17:40;4.03;;;3.63;;
79348;SDS011;68817;48.110;11.660;2023-06-24T10:20:05;5.00;;;3.72;;
79348;SDS011;68817;48.110;11.660;2023-06-24T10:22:31;4.30;;;2.70;;
79348;SDS011;68817;48.110;11.660;2023-06-24T10:24:59;3.95;;;3.55;;
79348;SDS011;68817;48.110;11.660;2023-06-24T10:27:25;4.03;;;3.63;;
79348;SDS011;68817;48.110;11.660;2023-06-24T10:29:52;3.30;;;3.00;;
79348;SDS011;68817;48.110;11.660;2023-06-24T10:32:19;4.10;;;3.70;;
79348;SDS011;68817;48.110;11.660;2023-06-24T10:34:47;4.10;;;3.40;;
79348;SDS011;68817;48.110;11.660;2023-06-24T10:44:49;4.25;;;3.28;;
79348;SDS011;68817;48.110;11.660;2023-06-24T10:47:15;4.40;;;3.70;;
79348;SDS011;68817;48.110;11.660;2023-06-24T10:49:41;4.22;;;3.83;;
79348;SDS011;68817;48.110;11.660;2023-06-24T10:52:10;6.85;;;3.90;;
79348;SDS011;68817;48.110;11.660;2023-06-24T10:54:39;4.95;;;3.20;;
79348;SDS011;68817;48.110;11.660;2023-06-24T10:57:06;4.57;;;3.20;;
79348;SDS011;68817;48.110;11.660;2023-06-24T10:59:36;3.85;;;3.40;;
79348;SDS011;68817;48.110;11.660;2023-06-24T11:02:07;4.95;;;3.50;;
79348;SDS011;68817;48.110;11.660;2023-06-24T11:04:41;5.47;;;3.90;;
79348;SDS011;68817;48.110;11.660;2023-06-24T11:07:07;4.57;;;3.53;;
79348;SDS011;68817;48.110;11.660;2023-06-24T11:09:33;4.03;;;3.63;;
79348;SDS011;68817;48.110;11.660;2023-06-24T11:11:58;3.60;;;3.25;;
79348;SDS011;68817;48.110;11.660;2023-06-24T11:14:24;5.97;;;4.07;;
79348;SDS011;68817;48.110;11.660;2023-06-24T11:16:49;5.28;;;3.92;;
79348;SDS011;68817;48.110;11.660;2023-06-24T11:19:14;5.78;;;4.00;;
79348;SDS011;68817;48.110;11.660;2023-06-24T11:21:40;6.85;;;4.03;;
79348;SDS011;68817;48.110;11.660;2023-06-24T11:24:05;4.20;;;3.70;;
79348;SDS011;68817;48.110;11.660;2023-06-24T11:26:32;3.85;;;3.38;;
79348;SDS011;68817;48.110;11.660;2023-06-24T11:28:58;6.53;;;3.78;;
79348;SDS011;68817;48.110;11.660;2023-06-24T11:31:26;4.32;;;3.60;;
79348;SDS011;68817;48.110;11.660;2023-06-24T11:33:52;4.32;;;3.47;;
79348;SDS011;68817;48.110;11.660;2023-06-24T11:36:21;3.88;;;3.28;;
79348;SDS011;68817;48.110;11.660;2023-06-24T11:38:47;3.88;;;3.47;;
79348;SDS011;68817;48.110;11.660;2023-06-24T11:41:13;5.30;;;3.38;;
79348;SDS011;68817;48.110;11.660;2023-06-24T11:43:46;3.72;;;2.95;;
79348;SDS011;68817;48.110;11.660;2023-06-24T11:46:21;4.80;;;3.72;;
79348;SDS011;68817;48.110;11.660;2023-06-24T11:48:49;4.13;;;3.42;;
79348;SDS011;68817;48.110;11.660;2023-06-24T11:51:14;3.78;;;2.78;;
79348;SDS011;68817;48.110;11.660;2023-06-24T11:53:41;4.78;;;3.30;;
79348;SDS011;68817;48.110;11.660;2023-06-24T11:56:11;3.97;;;3.58;;
79348;SDS011;68817;48.110;11.660;2023-06-24T11:58:37;4.55;;;2.85;;
79348;SDS011;68817;48.110;11.660;2023-06-24T12:01:02;5.25;;;3.70;;
79348;SDS011;68817;48.110;11.660;2023-06-24T12:03:31;4.97;;;3.15;;
79348;SDS011;68817;48.110;11.660;2023-06-24T12:05:58;4.35;;;3.30;;
79348;SDS011;68817;48.110;11.660;2023-06-24T12:08:24;4.63;;;3.40;;
79348;SDS011;68817;48.110;11.660;2023-06-24T12:10:49;6.03;;;3.40;;
79348;SDS011;68817;48.110;11.660;2023-06-24T12:13:16;4.00;;;3.58;;
79348;SDS011;68817;48.110;11.660;2023-06-24T12:15:42;4.18;;;3.67;;
79348;SDS011;68817;48.110;11.660;2023-06-24T12:18:07;4.13;;;3.67;;
79348;SDS011;68817;48.110;11.660;2023-06-24T12:20:33;4.82;;;3.50;;
79348;SDS011;68817;48.110;11.660;2023-06-24T12:23:01;3.90;;;3.00;;
79348;SDS011;68817;48.110;11.660;2023-06-24T12:25:26;4.28;;;3.40;;
79348;SDS011;68817;48.110;11.660;2023-06-24T12:27:52;3.92;;;3.08;;
79348;SDS011;68817;48.110;11.660;2023-06-24T12:30:17;4.20;;;3.22;;
79348;SDS011;68817;48.110;11.660;2023-06-24T12:32:43;3.88;;;3.33;;
79348;SDS011;68817;48.110;11.660;2023-06-24T12:35:09;4.68;;;3.60;;
79348;SDS011;68817;48.110;11.660;2023-06-24T12:37:35;4.63;;;3.55;;
79348;SDS011;68817;48.110;11.660;2023-06-24T12:40:01;4.45;;;3.85;;
79348;SDS011;68817;48.110;11.660;2023-06-24T12:42:27;5.22;;;3.70;;
79348;SDS011;68817;48.110;11.660;2023-06-24T12:44:53;4.35;;;3.58;;
79348;SDS011;68817;48.110;11.660;2023-06-24T12:47:18;5.65;;;3.45;;
79348;SDS011;68817;48.110;11.660;2023-06-24T12:49:44;4.97;;;3.70;;
79348;SDS011;68817;48.110;11.660;2023-06-24T12:52:09;5.05;;;3.83;;
79348;SDS011;68817;48.110;11.660;2023-06-24T12:54:35;5.78;;;3.90;;
79348;SDS011;68817;48.110;11.660;2023-06-24T12:57:01;5.35;;;3.95;;
79348;SDS011;68817;48.110;11.660;2023-06-24T12:59:26;5.70;;;3.80;;
79348;SDS011;68817;48.110;11.660;2023-06-24T13:01:52;5.32;;;4.18;;
79348;SDS011;68817;48.110;11.660;2023-06-24T13:04:18;4.88;;;3.60;;
79348;SDS011;68817;48.110;11.660;2023-06-24T13:06:45;4.30;;;3.20;;
79348;SDS011;68817;48.110;11.660;2023-06-24T13:09:11;3.70;;;2.83;;
79348;SDS011;68817;48.110;11.660;2023-06-24T13:11:36;4.97;;;3.58;;
79348;SDS011;68817;48.110;11.660;2023-06-24T13:14:02;3.70;;;3.05;;
79348;SDS011;68817;48.110;11.660;2023-06-24T13:16:28;4.22;;;3.83;;
79348;SDS011;68817;48.110;11.660;2023-06-24T13:18:53;5.30;;;3.90;;
79348;SDS011;68817;48.110;11.660;2023-06-24T13:21:19;4.28;;;3.17;;
79348;SDS011;68817;48.110;11.660;2023-06-24T13:23:44;4.43;;;3.47;;
79348;SDS011;68817;48.110;11.660;2023-06-24T13:26:11;3.80;;;3.28;;
79348;SDS011;68817;48.110;11.660;2023-06-24T13:28:37;3.88;;;2.85;;
79348;SDS011;68817;48.110;11.660;2023-06-24T13:31:02;4.85;;;3.72;;
79348;SDS011;68817;48.110;11.660;2023-06-24T13:33:28;4.03;;;3.22;;
79348;SDS011;68817;48.110;11.660;2023-06-24T13:35:54;3.85;;;3.33;;
79348;SDS011;68817;48.110;11.660;2023-06-24T13:38:20;5.28;;;3.47;;
79348;SDS011;68817;48.110;11.660;2023-06-24T13:40:45;3.80;;;3.10;;
79348;SDS011;68817;48.110;11.660;2023-06-24T13:43:11;4.43;;;2.90;;
79348;SDS011;68817;48.110;11.660;2023-06-24T13:45:36;4.53;;;3.45;;
79348;SDS011;68817;48.110;11.660;2023-06-24T13:48:01;4.68;;;3.75;;
79348;SDS011;68817;48.110;11.660;2023-06-24T13:50:27;5.57;;;3.30;;
79348;SDS011;68817;48.110;11.660;2023-06-24T13:52:54;4.35;;;3.40;;
79348;SDS011;68817;48.110;11.660;2023-06-24T13:55:19;5.13;;;3.30;;
79348;SDS011;68817;48.110;11.660;2023-06-24T13:57:45;4.35;;;3.58;;
79348;SDS011;68817;48.110;11.660;2023-06-24T14:00:10;4.47;;;3.50;;
79348;SDS011;68817;48.110;11.660;2023-06-24T14:02:40;5.25;;;3.55;;
79348;SDS011;68817;48.110;11.660;2023-06-24T14:05:06;6.07;;;3.22;;
79348;SDS011;68817;48.110;11.660;2023-06-24T14:07:31;4.45;;;3.50;;
79348;SDS011;68817;48.110;11.660;2023-06-24T14:09:57;3.75;;;2.97;;
79348;SDS011;68817;48.110;11.660;2023-06-24T14:12:22;4.10;;;2.83;;
79348;SDS011;68817;48.110;11.660;2023-06-24T14:14:48;4.95;;;3.22;;
79348;SDS011;68817;48.110;11.660;2023-06-24T14:17:13;3.58;;;2.95;;
79348;SDS011;68817;48.110;11.660;2023-06-24T14:19:39;4.15;;;3.42;;
79348;SDS011;68817;48.110;11.660;2023-06-24T14:22:05;4.18;;;2.90;;
79348;SDS011;68817;48.110;11.660;2023-06-24T14:24:31;4.45;;;3.08;;
79348;SDS011;68817;48.110;11.660;2023-06-24T14:26:56;4.82;;;2.95;;
79348;SDS011;68817;48.110;11.660;2023-06-24T14:29:22;5.20;;;3.33;;
79348;SDS011;68817;48.110;11.660;2023-06-24T14:31:47;3.95;;;2.85;;
79348;SDS011;68817;48.110;11.660;2023-06-24T14:34:13;3.97;;;3.13;;
79348;SDS011;68817;48.110;11.660;2023-06-24T14:36:38;3.70;;;2.97;;
79348;SDS011;68817;48.110;11.660;2023-06-24T14:39:04;3.55;;;2.80;;
79348;SDS011;68817;48.110;11.660;2023-06-24T14:41:29;3.63;;;2.90;;
79348;SDS011;68817;48.110;11.660;2023-06-24T14:43:55;3.55;;;3.03;;